Time;durP1;ratioP1;P1;durP2;ratioP2;P2;SDS_P1;SDS_P2;PMS_P1;PMS_P2;Temp;Humidity;BMP_temperature;BMP_pressure;BME280_temperature;BME280_humidity;BME280_pressure;Samples;Min_cycle;Max_cycle;Signal;HPM_P1;HPM_P2
2023/09/10 13:54:26;;;;;;;;;;;24.30;67.30;;;;;;1611994;72;1095;-57
2023/09/10 13:56:30;;;;;;;;;;;25.00;64.90;;;;;;1555945;74;1549;-59
2023/09/10 13:58:31;;;;;;;;;;;25.00;64.60;;;;;;1555198;74;1324;-56
2023/09/10 14:00:33;;;;;;;;;;;25.10;64.30;;;;;;1555935;74;1288;-56
2023/09/10 14:02:35;;;;;;;;;;;25.00;64.80;;;;;;1557368;74;1245;-58
2023/09/10 14:04:37;;;;;;;;;;;25.00;64.20;;;;;;1554783;74;1282;-57
2023/09/10 14:06:39;;;;;;;;;;;25.00;64.20;;;;;;1547518;74;1155;-57
2023/09/10 14:08:41;;;;;;;;;;;25.00;63.40;;;;;;1545739;75;1640;-57
2023/09/10 14:10:43;;;;;;;;;;;25.00;64.20;;;;;;1538831;75;1430;-57
2023/09/10 14:12:45;;;;;;;;;;;25.00;63.40;;;;;;1552123;75;1931;-59
2023/09/10 14:14:47;;;;;;;;;;;24.90;63.70;;;;;;1543024;75;1367;-58
2023/09/10 14:16:49;;;;;;;;;;;24.90;63.50;;;;;;1551489;75;1528;-58
2023/09/10 14:18:51;;;;;;;;;;;25.00;63.80;;;;;;1547879;75;1601;-58
2023/09/10 14:20:53;;;;;;;;;;;25.00;63.60;;;;;;1549080;74;1523;-58
2023/09/10 14:22:55;;;;;;;;;;;24.90;63.80;;;;;;1558175;75;1369;-58
2023/09/10 14:24:56;;;;;;;;;;;24.90;63.60;;;;;;1548924;75;1295;-56
2023/09/10 14:26:59;;;;;;;;;;;24.90;63.60;;;;;;1541800;74;1322;-59
2023/09/10 14:29:00;;;;;;;;;;;24.90;63.80;;;;;;1555959;74;1124;-58
2023/09/10 14:31:02;;;;;;;;;;;24.90;64.30;;;;;;1556509;74;1493;-59
2023/09/10 14:33:04;;;;;;;;;;;24.90;64.60;;;;;;1549981;74;1946;-58
2023/09/10 14:35:06;;;;;;;;;;;24.90;64.20;;;;;;1555268;75;1276;-58
2023/09/10 14:37:08;;;;;;;;;;;24.90;64.40;;;;;;1557483;74;1240;-58
2023/09/10 14:39:11;;;;;;;;;;;25.00;64.00;;;;;;1562188;74;1117;-59
2023/09/10 14:41:13;;;;;;;;;;;24.80;64.30;;;;;;1557345;74;1061;-59
2023/09/10 14:43:15;;;;;;;;;;;24.80;63.70;;;;;;1558740;74;1465;-58
2023/09/10 14:45:17;;;;;;;;;;;24.80;64.60;;;;;;1545189;74;1410;-55
2023/09/10 14:47:19;;;;;;;;;;;24.80;64.40;;;;;;1557644;74;1522;-56
2023/09/10 14:49:20;;;;;;;;;;;24.80;64.10;;;;;;1555082;75;1409;-56
2023/09/10 14:51:22;;;;;;;;;;;24.80;63.40;;;;;;1551450;74;1332;-56
2023/09/10 14:53:24;;;;;;;;;;;24.80;63.50;;;;;;1549995;74;1957;-56
2023/09/10 14:55:26;;;;;;;;;;;24.80;62.90;;;;;;1546828;75;1296;-55
2023/09/10 14:57:28;;;;;;;;;;;24.80;62.70;;;;;;1544646;75;1464;-55
2023/09/10 14:59:30;;;;;;;;;;;24.80;63.20;;;;;;1547105;75;1322;-56
2023/09/10 15:01:32;;;;;;;;;;;24.80;63.20;;;;;;1552794;75;1354;-56
2023/09/10 15:03:34;;;;;;;;;;;24.80;63.30;;;;;;1540619;75;1333;-56
2023/09/10 15:05:36;;;;;;;;;;;24.80;63.30;;;;;;1543112;75;1459;-55
2023/09/10 15:07:38;;;;;;;;;;;24.80;63.10;;;;;;1547552;75;1295;-57
2023/09/10 15:09:39;;;;;;;;;;;24.80;63.00;;;;;;1544275;75;1331;-56
2023/09/10 15:11:41;;;;;;;;;;;24.70;63.10;;;;;;1545318;75;1390;-56
2023/09/10 15:13:43;;;;;;;;;;;24.70;63.40;;;;;;1544660;75;1947;-56
2023/09/10 15:15:45;;;;;;;;;;;24.70;63.20;;;;;;1546711;75;1119;-55
2023/09/10 15:17:47;;;;;;;;;;;24.70;63.50;;;;;;1546310;75;731;-56
2023/09/10 15:19:49;;;;;;;;;;;24.60;63.60;;;;;;1553210;75;685;-55
2023/09/10 15:21:51;;;;;;;;;;;24.70;63.70;;;;;;1555547;75;680;-55
2023/09/10 15:23:53;;;;;;;;;;;24.70;64.00;;;;;;1558529;75;647;-56
2023/09/10 15:25:55;;;;;;;;;;;24.70;64.10;;;;;;1545510;74;1146;-55
2023/09/10 15:27:57;;;;;;;;;;;24.70;64.20;;;;;;1551539;75;593;-54
2023/09/10 15:29:58;;;;;;;;;;;24.60;64.20;;;;;;1555057;75;685;-56
2023/09/10 15:32:00;;;;;;;;;;;24.70;64.60;;;;;;1550967;75;667;-56
2023/09/10 15:34:03;;;;;;;;;;;24.70;64.60;;;;;;1544186;75;1936;-55
2023/09/10 15:36:05;;;;;;;;;;;24.60;64.30;;;;;;1554692;75;1137;-56
2023/09/10 15:38:07;;;;;;;;;;;24.60;64.40;;;;;;1552180;75;702;-54
2023/09/10 15:40:10;;;;;;;;;;;24.60;64.30;;;;;;1558473;75;711;-56
2023/09/10 15:42:11;;;;;;;;;;;24.60;64.60;;;;;;1559987;75;783;-56
2023/09/10 15:44:14;;;;;;;;;;;24.60;64.30;;;;;;1566182;75;692;-55
2023/09/10 15:46:16;;;;;;;;;;;24.60;64.50;;;;;;1543193;75;1148;-54
2023/09/10 15:48:18;;;;;;;;;;;24.60;64.50;;;;;;1547366;75;732;-53
2023/09/10 15:50:20;;;;;;;;;;;24.60;64.40;;;;;;1551806;75;660;-56
2023/09/10 15:52:22;;;;;;;;;;;24.60;64.50;;;;;;1555240;75;715;-56
2023/09/10 15:54:24;;;;;;;;;;;24.60;64.30;;;;;;1552655;75;1909;-55
2023/09/10 15:56:26;;;;;;;;;;;24.60;64.40;;;;;;1555950;75;1155;-56
2023/09/10 15:58:28;;;;;;;;;;;24.50;64.20;;;;;;1552796;75;711;-55
2023/09/10 16:00:30;;;;;;;;;;;24.60;64.20;;;;;;1561929;75;858;-56
2023/09/10 16:02:38;;;;;;;;;;;24.60;64.40;;;;;;1568573;75;715;-54
2023/09/10 16:04:35;;;;;;;;;;;24.60;64.20;;;;;;1550591;75;1504;-55
2023/09/10 16:06:37;;;;;;;;;;;24.60;64.10;;;;;;1545834;75;1191;-56
2023/09/10 16:08:39;;;;;;;;;;;24.60;64.10;;;;;;1556432;75;735;-56
2023/09/10 16:10:41;;;;;;;;;;;24.50;64.20;;;;;;1558953;75;828;-55
2023/09/10 16:12:43;;;;;;;;;;;24.60;64.20;;;;;;1559144;75;766;-56
2023/09/10 16:14:45;;;;;;;;;;;24.60;64.00;;;;;;1546641;75;1940;-54
2023/09/10 16:16:47;;;;;;;;;;;24.60;64.30;;;;;;1544897;75;1112;-55
2023/09/10 16:18:49;;;;;;;;;;;24.50;64.20;;;;;;1552207;75;701;-56
2023/09/10 16:20:51;;;;;;;;;;;24.50;64.30;;;;;;1550576;75;723;-56
2023/09/10 16:22:53;;;;;;;;;;;24.60;64.20;;;;;;1557542;75;662;-56
2023/09/10 16:24:55;;;;;;;;;;;24.60;64.20;;;;;;1551738;75;775;-54
2023/09/10 16:26:57;;;;;;;;;;;24.50;64.30;;;;;;1549497;75;1098;-54
2023/09/10 16:28:59;;;;;;;;;;;24.50;64.10;;;;;;1545441;75;1275;-55
2023/09/10 16:31:01;;;;;;;;;;;24.50;64.30;;;;;;1551638;75;738;-55
2023/09/10 16:33:02;;;;;;;;;;;24.50;64.30;;;;;;1552325;75;726;-54
2023/09/10 16:35:05;;;;;;;;;;;24.60;64.30;;;;;;1557473;75;1943;-56
2023/09/10 16:37:07;;;;;;;;;;;24.50;64.30;;;;;;1556693;75;832;-56
2023/09/10 16:39:08;;;;;;;;;;;24.50;64.30;;;;;;1543382;75;777;-56
2023/09/10 16:41:10;;;;;;;;;;;24.50;64.40;;;;;;1548071;75;703;-55
2023/09/10 16:43:12;;;;;;;;;;;24.50;64.30;;;;;;1551709;75;1552;-54
2023/09/10 16:45:15;;;;;;;;;;;24.50;64.30;;;;;;1550443;75;1100;-55
2023/09/10 16:47:17;;;;;;;;;;;24.50;64.40;;;;;;1547141;75;870;-53
2023/09/10 16:49:18;;;;;;;;;;;24.50;64.30;;;;;;1548623;75;755;-53
2023/09/10 16:51:22;;;;;;;;;;;24.50;64.30;;;;;;1559971;75;753;-56
2023/09/10 16:53:24;;;;;;;;;;;24.50;64.20;;;;;;1544181;75;776;-55
2023/09/10 16:55:26;;;;;;;;;;;24.50;64.30;;;;;;1566184;75;1958;-56
2023/09/10 16:57:28;;;;;;;;;;;24.50;64.30;;;;;;1543632;75;1462;-53
2023/09/10 16:59:30;;;;;;;;;;;24.50;64.40;;;;;;1551693;75;893;-55
2023/09/10 17:01:31;;;;;;;;;;;24.60;64.40;;;;;;1552100;75;797;-55
2023/09/10 17:03:33;;;;;;;;;;;24.50;64.50;;;;;;1554592;75;791;-56
2023/09/10 17:05:35;;;;;;;;;;;24.50;64.50;;;;;;1554861;75;1172;-56
2023/09/10 17:07:39;;;;;;;;;;;24.40;64.30;;;;;;1549788;75;797;-56
2023/09/10 17:09:41;;;;;;;;;;;24.50;64.50;;;;;;1556197;75;1884;-55
2023/09/10 17:11:43;;;;;;;;;;;24.50;64.50;;;;;;1551290;75;1688;-55
2023/09/10 17:13:47;;;;;;;;;;;24.50;64.50;;;;;;1551199;75;1909;-55
2023/09/10 17:15:50;;;;;;;;;;;24.50;64.50;;;;;;1543883;75;1186;-54
2023/09/10 17:17:52;;;;;;;;;;;24.50;64.50;;;;;;1555529;75;670;-56
2023/09/10 17:19:54;;;;;;;;;;;24.50;64.50;;;;;;1553331;75;800;-56
2023/09/10 17:21:56;;;;;;;;;;;24.50;64.50;;;;;;1553271;75;712;-55
2023/09/10 17:24:00;;;;;;;;;;;24.50;64.60;;;;;;1552788;75;1099;-53
2023/09/10 17:26:01;;;;;;;;;;;24.50;64.50;;;;;;1548461;75;1695;-56
2023/09/10 17:28:03;;;;;;;;;;;24.60;64.50;;;;;;1554131;75;752;-56
2023/09/10 17:30:06;;;;;;;;;;;24.50;64.60;;;;;;1549959;75;808;-55
2023/09/10 17:32:08;;;;;;;;;;;24.50;64.60;;;;;;1563249;75;790;-55
2023/09/10 17:34:10;;;;;;;;;;;24.50;64.50;;;;;;1548037;75;1913;-55
2023/09/10 17:36:12;;;;;;;;;;;24.50;64.60;;;;;;1563789;75;1077;-55
2023/09/10 17:38:14;;;;;;;;;;;24.50;64.60;;;;;;1551837;75;1511;-55
2023/09/10 17:40:17;;;;;;;;;;;24.50;64.60;;;;;;1543869;75;801;-53
2023/09/10 17:42:21;;;;;;;;;;;24.50;64.40;;;;;;1552117;75;718;-56
2023/09/10 17:44:23;;;;;;;;;;;24.50;64.60;;;;;;1545404;75;733;-55
2023/09/10 17:46:25;;;;;;;;;;;24.50;64.60;;;;;;1552472;75;1119;-54
2023/09/10 17:48:27;;;;;;;;;;;24.40;64.40;;;;;;1549473;75;631;-54
2023/09/10 17:50:29;;;;;;;;;;;24.50;64.60;;;;;;1552732;75;734;-54
2023/09/10 17:52:31;;;;;;;;;;;24.50;64.50;;;;;;1548867;75;1528;-55
2023/09/10 17:54:33;;;;;;;;;;;24.50;64.50;;;;;;1557985;75;1942;-54
2023/09/10 17:56:35;;;;;;;;;;;24.50;64.50;;;;;;1542984;75;1142;-56
2023/09/10 17:58:36;;;;;;;;;;;24.50;64.40;;;;;;1548216;75;795;-53
2023/09/10 18:00:38;;;;;;;;;;;24.50;64.40;;;;;;1542873;75;737;-56
2023/09/10 18:02:40;;;;;;;;;;;24.50;64.50;;;;;;1555724;75;759;-55
2023/09/10 18:04:42;;;;;;;;;;;24.50;64.40;;;;;;1552418;75;670;-55
2023/09/10 18:06:44;;;;;;;;;;;24.50;64.50;;;;;;1550608;75;1551;-54
2023/09/10 18:08:46;;;;;;;;;;;24.40;64.40;;;;;;1561013;75;763;-56
2023/09/10 18:10:50;;;;;;;;;;;24.40;64.40;;;;;;1548353;75;717;-54
2023/09/10 18:12:52;;;;;;;;;;;24.50;64.40;;;;;;1552244;75;761;-53
2023/09/10 18:14:54;;;;;;;;;;;24.50;64.50;;;;;;1548124;75;1952;-56
2023/09/10 18:16:56;;;;;;;;;;;24.50;64.40;;;;;;1546976;75;1120;-55
2023/09/10 18:18:58;;;;;;;;;;;24.50;64.50;;;;;;1552958;75;736;-56
2023/09/10 18:20:59;;;;;;;;;;;24.50;64.50;;;;;;1552020;75;1513;-58
2023/09/10 18:23:01;;;;;;;;;;;24.50;64.50;;;;;;1550695;75;769;-56
2023/09/10 18:25:03;;;;;;;;;;;24.50;64.50;;;;;;1552614;75;1149;-58
2023/09/10 18:27:05;;;;;;;;;;;24.40;64.40;;;;;;1548959;75;753;-58
2023/09/10 18:29:08;;;;;;;;;;;24.40;64.40;;;;;;1549704;75;789;-58
2023/09/10 18:31:10;;;;;;;;;;;24.40;64.40;;;;;;1546247;75;700;-57
2023/09/10 18:33:12;;;;;;;;;;;24.50;64.50;;;;;;1545577;75;729;-56
2023/09/10 18:35:14;;;;;;;;;;;24.50;64.50;;;;;;1551844;75;1927;-55
2023/09/10 18:37:16;;;;;;;;;;;24.40;64.50;;;;;;1552317;75;731;-58
2023/09/10 18:39:18;;;;;;;;;;;24.40;64.50;;;;;;1540748;75;794;-59
2023/09/10 18:41:20;;;;;;;;;;;24.40;64.40;;;;;;1549836;75;739;-57
2023/09/10 18:43:22;;;;;;;;;;;24.40;64.50;;;;;;1551360;75;878;-58
2023/09/10 18:45:26;;;;;;;;;;;24.40;64.40;;;;;;1553227;75;1170;-57
2023/09/10 18:47:28;;;;;;;;;;;24.50;64.50;;;;;;1553044;75;1750;-58
2023/09/10 18:49:29;;;;;;;;;;;24.40;64.50;;;;;;1541433;75;1571;-57
2023/09/10 18:51:31;;;;;;;;;;;24.50;64.60;;;;;;1555870;75;769;-56
2023/09/10 18:53:33;;;;;;;;;;;24.50;64.50;;;;;;1547296;75;740;-58
2023/09/10 18:55:35;;;;;;;;;;;24.40;64.50;;;;;;1555015;75;1958;-58
2023/09/10 18:57:37;;;;;;;;;;;24.40;64.50;;;;;;1543780;75;776;-57
2023/09/10 18:59:39;;;;;;;;;;;24.40;64.50;;;;;;1548239;75;811;-58
2023/09/10 19:01:41;;;;;;;;;;;24.40;64.50;;;;;;1550848;75;745;-57
2023/09/10 19:03:43;;;;;;;;;;;24.40;64.50;;;;;;1550779;75;1242;-59
2023/09/10 19:05:45;;;;;;;;;;;24.40;64.50;;;;;;1552141;75;1189;-55
2023/09/10 19:07:46;;;;;;;;;;;24.60;64.60;;;;;;1548941;74;1043;-57
2023/09/10 19:09:48;;;;;;;;;;;24.50;64.60;;;;;;1559399;74;768;-58
2023/09/10 19:11:50;;;;;;;;;;;24.40;64.50;;;;;;1559269;74;850;-59
2023/09/10 19:13:52;;;;;;;;;;;24.40;64.50;;;;;;1560022;74;781;-58
2023/09/10 19:15:54;;;;;;;;;;;24.40;64.60;;;;;;1549253;74;1947;-57
2023/09/10 19:17:56;;;;;;;;;;;24.40;64.60;;;;;;1556889;74;1568;-57
2023/09/10 19:19:58;;;;;;;;;;;24.40;64.50;;;;;;1557199;74;730;-57
2023/09/10 19:22:00;;;;;;;;;;;24.40;64.50;;;;;;1556559;74;807;-57
2023/09/10 19:24:02;;;;;;;;;;;24.40;64.50;;;;;;1554304;74;673;-56
2023/09/10 19:26:04;;;;;;;;;;;24.30;64.50;;;;;;1558244;74;1138;-57
2023/09/10 19:28:06;;;;;;;;;;;24.40;64.50;;;;;;1560273;74;780;-55
2023/09/10 19:30:08;;;;;;;;;;;24.40;64.50;;;;;;1550332;74;792;-57
2023/09/10 19:32:10;;;;;;;;;;;24.40;64.50;;;;;;1549001;74;1449;-56
2023/09/10 19:34:12;;;;;;;;;;;24.40;64.50;;;;;;1554608;74;733;-56
2023/09/10 19:36:16;;;;;;;;;;;24.40;64.50;;;;;;1559949;74;1929;-58
2023/09/10 19:38:20;;;;;;;;;;;24.40;64.50;;;;;;1555397;74;1642;-58
2023/09/10 19:40:21;;;;;;;;;;;24.40;64.50;;;;;;1557705;74;1528;-58
2023/09/10 19:42:23;;;;;;;;;;;24.30;64.50;;;;;;1548388;74;934;-56
2023/09/10 19:44:25;;;;;;;;;;;24.40;64.50;;;;;;1564935;74;738;-57
2023/09/10 19:46:27;;;;;;;;;;;24.40;64.50;;;;;;1558926;74;1637;-58
2023/09/10 19:48:29;;;;;;;;;;;24.40;64.50;;;;;;1570170;74;734;-58
2023/09/10 19:50:31;;;;;;;;;;;24.40;64.50;;;;;;1557873;74;730;-56
2023/09/10 19:52:33;;;;;;;;;;;24.30;64.50;;;;;;1552044;74;888;-59
2023/09/10 19:54:34;;;;;;;;;;;24.40;64.50;;;;;;1558090;74;1947;-58
2023/09/10 19:56:36;;;;;;;;;;;24.40;64.50;;;;;;1556860;74;1146;-58
2023/09/10 19:58:38;;;;;;;;;;;24.40;64.40;;;;;;1552900;74;705;-57
2023/09/10 20:00:43;;;;;;;;;;;24.40;64.50;;;;;;1545444;74;1527;-58
2023/09/10 20:02:44;;;;;;;;;;;24.30;64.40;;;;;;1564570;74;1499;-58
2023/09/10 20:04:46;;;;;;;;;;;24.30;64.40;;;;;;1561214;74;734;-58
2023/09/10 20:06:50;;;;;;;;;;;24.40;64.50;;;;;;1560315;74;1168;-57
2023/09/10 20:08:51;;;;;;;;;;;24.40;64.50;;;;;;1555264;74;1707;-57
2023/09/10 20:10:53;;;;;;;;;;;24.40;64.50;;;;;;1559865;74;726;-57
2023/09/10 20:12:56;;;;;;;;;;;24.30;64.50;;;;;;1551192;74;1509;-57
2023/09/10 20:14:58;;;;;;;;;;;24.40;64.50;;;;;;1556032;74;1918;-56
2023/09/10 20:17:01;;;;;;;;;;;24.30;64.40;;;;;;1556152;74;1199;-58
2023/09/10 20:19:03;;;;;;;;;;;24.30;64.50;;;;;;1560362;74;704;-56
2023/09/10 20:21:05;;;;;;;;;;;24.40;64.40;;;;;;1557587;74;756;-58
2023/09/10 20:23:07;;;;;;;;;;;24.30;64.40;;;;;;1556425;74;762;-58
2023/09/10 20:25:09;;;;;;;;;;;24.30;64.40;;;;;;1561360;74;1168;-58
2023/09/10 20:27:11;;;;;;;;;;;24.30;64.40;;;;;;1558611;74;1553;-57
2023/09/10 20:29:13;;;;;;;;;;;24.30;64.40;;;;;;1549895;74;721;-57
2023/09/10 20:31:15;;;;;;;;;;;24.30;64.40;;;;;;1556006;74;739;-58
2023/09/10 20:33:17;;;;;;;;;;;24.30;64.40;;;;;;1555461;74;762;-56
2023/09/10 20:35:19;;;;;;;;;;;24.20;64.30;;;;;;1560032;74;1942;-56
2023/09/10 20:37:21;;;;;;;;;;;24.30;64.40;;;;;;1559652;74;728;-57
2023/09/10 20:39:23;;;;;;;;;;;24.30;64.40;;;;;;1543545;74;728;-58
2023/09/10 20:41:25;;;;;;;;;;;24.30;64.30;;;;;;1553681;74;1542;-56
2023/09/10 20:43:26;;;;;;;;;;;24.30;64.40;;;;;;1559009;74;731;-57
2023/09/10 20:45:28;;;;;;;;;;;24.20;64.30;;;;;;1558854;74;1153;-57
2023/09/10 20:47:30;;;;;;;;;;;24.30;64.40;;;;;;1556772;74;716;-58
2023/09/10 20:49:32;;;;;;;;;;;24.30;64.30;;;;;;1559515;74;767;-57
2023/09/10 20:51:34;;;;;;;;;;;24.20;64.20;;;;;;1544109;74;738;-55
2023/09/10 20:53:36;;;;;;;;;;;24.30;64.30;;;;;;1563772;74;806;-56
2023/09/10 20:55:38;;;;;;;;;;;24.30;64.30;;;;;;1554317;74;1928;-57
2023/09/10 20:57:40;;;;;;;;;;;24.30;64.30;;;;;;1554408;74;782;-59
2023/09/10 20:59:42;;;;;;;;;;;24.30;64.20;;;;;;1557806;74;790;-58
2023/09/10 21:01:43;;;;;;;;;;;24.30;64.20;;;;;;1560005;74;891;-57
2023/09/10 21:03:45;;;;;;;;;;;24.20;64.20;;;;;;1565194;74;730;-58
2023/09/10 21:05:47;;;;;;;;;;;24.20;64.20;;;;;;1558886;74;1114;-57
2023/09/10 21:07:49;;;;;;;;;;;24.20;64.10;;;;;;1556446;74;1095;-58
2023/09/10 21:09:53;;;;;;;;;;;24.20;64.10;;;;;;1552839;75;1532;-57
2023/09/10 21:11:54;;;;;;;;;;;24.30;64.20;;;;;;1550990;75;1160;-58
2023/09/10 21:13:56;;;;;;;;;;;24.30;64.20;;;;;;1551477;75;630;-58
2023/09/10 21:15:58;;;;;;;;;;;24.30;64.20;;;;;;1553459;75;1951;-57
2023/09/10 21:18:00;;;;;;;;;;;24.30;64.20;;;;;;1559898;75;735;-58
2023/09/10 21:20:02;;;;;;;;;;;24.30;64.20;;;;;;1552252;75;740;-56
2023/09/10 21:22:04;;;;;;;;;;;24.20;64.10;;;;;;1552088;75;737;-59
2023/09/10 21:24:08;;;;;;;;;;;24.30;64.20;;;;;;1559643;75;1562;-57
2023/09/10 21:26:10;;;;;;;;;;;24.20;64.00;;;;;;1557808;75;1150;-59
2023/09/10 21:28:11;;;;;;;;;;;24.30;64.20;;;;;;1538286;75;718;-58
2023/09/10 21:30:13;;;;;;;;;;;24.30;64.20;;;;;;1549318;75;708;-58
2023/09/10 21:32:15;;;;;;;;;;;24.30;64.10;;;;;;1551959;75;888;-57
2023/09/10 21:34:17;;;;;;;;;;;24.20;64.00;;;;;;1552917;75;678;-56
2023/09/10 21:36:19;;;;;;;;;;;24.30;64.10;;;;;;1566998;75;1941;-57
2023/09/10 21:38:21;;;;;;;;;;;24.20;64.00;;;;;;1547746;75;1535;-57
2023/09/10 21:40:23;;;;;;;;;;;24.20;64.00;;;;;;1551422;75;800;-57
2023/09/10 21:42:25;;;;;;;;;;;24.20;64.00;;;;;;1550917;75;711;-58
2023/09/10 21:44:27;;;;;;;;;;;24.20;63.90;;;;;;1551383;75;805;-58
2023/09/10 21:46:28;;;;;;;;;;;24.20;63.90;;;;;;1550862;75;1134;-57
2023/09/10 21:48:30;;;;;;;;;;;24.30;64.00;;;;;;1549731;75;778;-57
2023/09/10 21:50:32;;;;;;;;;;;24.20;63.90;;;;;;1557023;75;699;-56
2023/09/10 21:52:34;;;;;;;;;;;24.20;63.90;;;;;;1549418;75;1540;-57
2023/09/10 21:54:36;;;;;;;;;;;24.30;63.90;;;;;;1551097;75;732;-59
2023/09/10 21:56:38;;;;;;;;;;;24.20;63.80;;;;;;1543022;75;1949;-59
2023/09/10 21:58:40;;;;;;;;;;;24.30;63.90;;;;;;1556164;75;761;-57
2023/09/10 22:00:41;;;;;;;;;;;24.20;63.80;;;;;;1554380;75;851;-59
2023/09/10 22:02:43;;;;;;;;;;;24.20;63.80;;;;;;1551867;75;681;-57
2023/09/10 22:04:45;;;;;;;;;;;24.20;63.80;;;;;;1558250;75;737;-58
2023/09/10 22:06:49;;;;;;;;;;;24.20;63.80;;;;;;1555709;75;1587;-56
2023/09/10 22:08:51;;;;;;;;;;;24.20;63.80;;;;;;1552803;75;1074;-58
2023/09/10 22:10:59;;;;;;;;;;;24.20;63.80;;;;;;1551498;75;702;-56
2023/09/10 22:13:01;;;;;;;;;;;24.20;63.70;;;;;;1549863;75;724;-58
2023/09/10 22:15:03;;;;;;;;;;;24.20;63.80;;;;;;1552520;75;1193;-55
2023/09/10 22:17:05;;;;;;;;;;;24.20;63.70;;;;;;1550260;75;1919;-58
2023/09/10 22:19:11;;;;;;;;;;;24.20;63.70;;;;;;1546753;75;728;-58
2023/09/10 22:21:12;;;;;;;;;;;24.20;63.70;;;;;;1548574;75;1374;-56
2023/09/10 22:23:14;;;;;;;;;;;24.20;63.70;;;;;;1559867;75;719;-58
2023/09/10 22:25:16;;;;;;;;;;;24.20;63.70;;;;;;1543020;75;1147;-58
2023/09/10 22:27:18;;;;;;;;;;;24.20;63.70;;;;;;1550992;75;712;-56
2023/09/10 22:29:20;;;;;;;;;;;24.20;63.60;;;;;;1546715;75;711;-58
2023/09/10 22:31:22;;;;;;;;;;;24.20;63.60;;;;;;1551035;75;854;-58
2023/09/10 22:33:24;;;;;;;;;;;24.20;63.60;;;;;;1562186;75;799;-58
2023/09/10 22:35:26;;;;;;;;;;;24.20;63.60;;;;;;1552444;75;1751;-57
2023/09/10 22:37:27;;;;;;;;;;;24.20;63.60;;;;;;1550176;75;1951;-58
2023/09/10 22:39:31;;;;;;;;;;;24.20;63.50;;;;;;1564555;75;719;-58
2023/09/10 22:41:33;;;;;;;;;;;24.20;63.50;;;;;;1552145;75;731;-59
2023/09/10 22:43:35;;;;;;;;;;;24.20;63.50;;;;;;1546913;75;693;-59
2023/09/10 22:45:37;;;;;;;;;;;24.20;63.50;;;;;;1550079;75;1130;-58
2023/09/10 22:47:38;;;;;;;;;;;24.20;63.50;;;;;;1558100;75;1294;-57
2023/09/10 22:49:40;;;;;;;;;;;24.20;63.40;;;;;;1522794;76;780;-56
2023/09/10 22:51:45;;;;;;;;;;;24.20;63.40;;;;;;1519242;76;749;-56
2023/09/10 22:53:50;;;;;;;;;;;24.20;63.40;;;;;;1507288;77;727;-57
2023/09/10 22:55:57;;;;;;;;;;;24.20;63.50;;;;;;1500146;77;2225;-59
2023/09/10 22:57:54;;;;;;;;;;;24.20;63.40;;;;;;1502577;77;1449;-58
2023/09/10 22:59:56;;;;;;;;;;;24.20;63.40;;;;;;1560259;74;807;-57
2023/09/10 23:01:58;;;;;;;;;;;24.20;63.40;;;;;;1557256;74;1586;-56
2023/09/10 23:04:00;;;;;;;;;;;24.20;63.40;;;;;;1559138;74;774;-57
2023/09/10 23:06:03;;;;;;;;;;;24.20;63.30;;;;;;1558547;74;1168;-57
2023/09/10 23:08:06;;;;;;;;;;;24.10;63.30;;;;;;1562142;74;718;-58
2023/09/10 23:10:08;;;;;;;;;;;24.10;63.20;;;;;;1562372;74;1064;-56
2023/09/10 23:12:10;;;;;;;;;;;24.20;63.20;;;;;;1567814;74;731;-58
2023/09/10 23:14:12;;;;;;;;;;;24.20;63.20;;;;;;1562650;74;719;-57
2023/09/10 23:16:14;;;;;;;;;;;24.20;63.20;;;;;;1555478;74;1921;-56
2023/09/10 23:18:16;;;;;;;;;;;24.20;63.20;;;;;;1567807;74;801;-59
2023/09/10 23:20:18;;;;;;;;;;;24.20;63.10;;;;;;1555076;74;742;-58
2023/09/10 23:22:20;;;;;;;;;;;24.10;63.10;;;;;;1577644;74;764;-58
2023/09/10 23:24:22;;;;;;;;;;;24.10;63.10;;;;;;1566557;74;733;-58
2023/09/10 23:26:24;;;;;;;;;;;24.10;63.10;;;;;;1567963;74;1116;-57
2023/09/10 23:28:25;;;;;;;;;;;24.20;63.10;;;;;;1567605;74;794;-58
2023/09/10 23:30:27;;;;;;;;;;;24.10;63.10;;;;;;1560154;74;1576;-57
2023/09/10 23:32:29;;;;;;;;;;;24.20;63.00;;;;;;1560243;74;819;-58
2023/09/10 23:34:31;;;;;;;;;;;24.20;63.00;;;;;;1556328;74;750;-57
2023/09/10 23:36:33;;;;;;;;;;;24.20;63.00;;;;;;1575041;74;1950;-58
2023/09/10 23:38:35;;;;;;;;;;;24.10;63.00;;;;;;1567250;74;691;-58
2023/09/10 23:40:37;;;;;;;;;;;24.10;62.90;;;;;;1563444;74;765;-58
2023/09/10 23:42:39;;;;;;;;;;;24.20;63.00;;;;;;1567720;74;791;-58
2023/09/10 23:44:41;;;;;;;;;;;24.10;62.90;;;;;;1559829;74;1595;-58
2023/09/10 23:46:43;;;;;;;;;;;24.20;62.90;;;;;;1555334;74;1134;-58
2023/09/10 23:48:45;;;;;;;;;;;24.20;62.90;;;;;;1556989;74;783;-56
2023/09/10 23:50:47;;;;;;;;;;;24.20;62.90;;;;;;1558937;74;752;-57
2023/09/10 23:52:49;;;;;;;;;;;24.20;62.90;;;;;;1563137;74;778;-58
2023/09/10 23:54:51;;;;;;;;;;;24.10;62.80;;;;;;1567893;74;841;-58
2023/09/10 23:56:52;;;;;;;;;;;24.10;62.80;;;;;;1566068;74;1936;-58
2023/09/10 23:58:54;;;;;;;;;;;24.20;62.80;;;;;;1557213;74;1531;-57
